createdAt,value
2022-11-08T00:00:52.028Z,1.00
2022-11-08T00:01:54.396Z,1.00
2022-11-08T00:02:56.091Z,1.00
2022-11-08T00:04:02.413Z,1.00
2022-11-08T00:05:23.354Z,1.00
2022-11-08T00:06:43.666Z,1.00
2022-11-08T00:08:04.188Z,1.00
2022-11-08T00:09:24.633Z,1.00
2022-11-08T00:10:44.922Z,1.00
2022-11-08T00:12:08.027Z,1.00
2022-11-08T00:13:28.430Z,1.00
2022-11-08T00:14:30.048Z,1.00
2022-11-08T00:15:38.202Z,1.00
2022-11-08T00:16:39.842Z,1.00
2022-11-08T00:17:41.507Z,1.00
2022-11-08T00:18:43.189Z,1.00
2022-11-08T00:19:45.282Z,1.00
2022-11-08T00:20:47.533Z,1.00
2022-11-08T00:21:49.128Z,1.00
2022-11-08T00:22:50.946Z,1.00
2022-11-08T00:23:52.977Z,1.00
2022-11-08T00:24:54.543Z,1.00
2022-11-08T00:25:56.160Z,1.00
2022-11-08T00:26:57.799Z,1.00
2022-11-08T00:27:59.411Z,1.00
2022-11-08T00:29:01.039Z,1.00
2022-11-08T00:30:02.954Z,1.00
2022-11-08T00:31:06.250Z,1.00
2022-11-08T00:32:11.262Z,1.00
2022-11-08T00:33:12.875Z,1.00
2022-11-08T00:34:14.485Z,1.00
2022-11-08T00:35:16.320Z,1.00
2022-11-08T00:36:17.947Z,1.00
2022-11-08T00:37:21.055Z,1.00
2022-11-08T00:38:22.665Z,1.00
2022-11-08T00:39:24.317Z,1.00
2022-11-08T00:40:25.946Z,1.00
2022-11-08T00:41:27.568Z,1.00
2022-11-08T00:42:29.328Z,1.00
2022-11-08T00:43:31.394Z,1.00
2022-11-08T00:44:33.019Z,1.00
2022-11-08T00:45:34.714Z,1.00
2022-11-08T00:46:37.499Z,1.00
2022-11-08T00:47:39.114Z,1.00
2022-11-08T00:48:40.740Z,1.00
2022-11-08T00:49:42.344Z,1.00
2022-11-08T00:50:43.967Z,1.00
2022-11-08T00:51:45.623Z,1.00
2022-11-08T00:52:47.209Z,1.00
2022-11-08T00:53:48.834Z,1.00
2022-11-08T00:54:50.453Z,1.00
2022-11-08T00:55:59.407Z,1.00
2022-11-08T00:57:01.036Z,1.00
2022-11-08T00:58:02.661Z,6.20
2022-11-08T00:59:04.291Z,31.70
2022-11-08T01:00:06.653Z,22.40
2022-11-08T01:01:10.375Z,9.20
2022-11-08T01:02:12.067Z,1.00
2022-11-08T01:03:19.814Z,1.00
2022-11-08T01:04:21.491Z,1.00
2022-11-08T01:05:23.175Z,1.00
2022-11-08T01:06:26.058Z,1.00
2022-11-08T01:07:27.647Z,13.60
2022-11-08T01:08:29.223Z,1.00
2022-11-08T01:09:30.814Z,1.00
2022-11-08T01:10:32.494Z,1.00
2022-11-08T01:11:34.491Z,1.00
2022-11-08T01:12:36.160Z,1.00
2022-11-08T01:13:38.108Z,1.00
2022-11-08T01:14:39.705Z,1.00
2022-11-08T01:15:43.599Z,1.00
2022-11-08T01:16:45.330Z,1.00
2022-11-08T01:17:46.998Z,1.00
2022-11-08T01:18:50.106Z,1.00
2022-11-08T01:19:51.889Z,1.00
2022-11-08T01:20:53.484Z,1.00
2022-11-08T01:21:55.108Z,1.00
2022-11-08T01:22:56.764Z,1.00
2022-11-08T01:23:58.380Z,1.00
2022-11-08T01:25:00.393Z,1.00
2022-11-08T01:26:05.625Z,1.00
2022-11-08T01:27:07.286Z,1.00
2022-11-08T01:28:11.448Z,1.00
2022-11-08T01:29:13.049Z,1.00
2022-11-08T01:30:14.777Z,1.00
2022-11-08T01:31:23.084Z,1.00
2022-11-08T01:32:24.905Z,1.00
2022-11-08T01:33:26.866Z,1.00
2022-11-08T01:34:28.458Z,1.00
2022-11-08T01:35:34.404Z,1.00
2022-11-08T01:36:36.945Z,1.00
2022-11-08T01:37:38.571Z,1.00
2022-11-08T01:38:40.877Z,1.00
2022-11-08T01:39:42.492Z,1.00
2022-11-08T01:40:47.745Z,99.90
2022-11-08T01:41:49.408Z,1.00
2022-11-08T01:42:51.204Z,1.00
2022-11-08T01:43:58.351Z,1.00
2022-11-08T01:45:07.627Z,99.90
2022-11-08T01:46:18.481Z,1.00
2022-11-08T01:47:20.057Z,99.90
2022-11-08T01:48:22.754Z,99.90
2022-11-08T01:49:27.306Z,99.90
2022-11-08T01:50:29.077Z,1.00
2022-11-08T01:51:40.404Z,1.00
2022-11-08T01:52:48.731Z,99.90
2022-11-08T01:53:51.136Z,99.90
2022-11-08T01:55:04.786Z,99.90
2022-11-08T01:56:08.200Z,1.00
2022-11-08T01:57:14.394Z,1.00
2022-11-08T01:58:20.702Z,1.00
2022-11-08T01:59:23.066Z,1.00
2022-11-08T02:00:24.994Z,1.00
2022-11-08T02:01:26.755Z,1.00
2022-11-08T02:02:28.788Z,1.00
2022-11-08T02:03:34.241Z,1.00
2022-11-08T02:04:37.527Z,1.00
2022-11-08T02:05:40.119Z,1.00
2022-11-08T02:06:43.387Z,1.00
2022-11-08T02:07:45.032Z,1.00
2022-11-08T02:08:47.047Z,1.00
2022-11-08T02:09:48.726Z,1.00
2022-11-08T02:10:52.691Z,1.00
2022-11-08T02:11:55.120Z,1.00
2022-11-08T02:12:57.366Z,1.00
2022-11-08T02:13:59.335Z,1.00
2022-11-08T02:15:01.174Z,1.00
2022-11-08T02:16:03.181Z,1.00
2022-11-08T02:17:06.277Z,1.00
2022-11-08T02:18:08.047Z,1.00
2022-11-08T02:19:17.556Z,1.00
2022-11-08T02:20:19.435Z,1.00
2022-11-08T02:21:27.551Z,1.00
2022-11-08T02:22:40.534Z,1.00
2022-11-08T02:23:53.674Z,1.00
2022-11-08T02:24:58.346Z,1.00
2022-11-08T02:25:59.999Z,1.00
2022-11-08T02:27:02.328Z,1.00
2022-11-08T02:28:04.107Z,1.00
2022-11-08T02:29:30.613Z,1.00
2022-11-08T02:30:37.585Z,1.00
2022-11-08T02:31:39.174Z,1.00
2022-11-08T02:32:41.750Z,1.00
2022-11-08T02:33:44.144Z,1.00
2022-11-08T02:34:51.153Z,1.00
2022-11-08T02:35:55.835Z,1.00
2022-11-08T02:36:58.447Z,45.10
2022-11-08T02:38:00.104Z,71.90
2022-11-08T02:39:02.213Z,70.00
2022-11-08T02:40:04.981Z,45.30
2022-11-08T02:41:07.205Z,51.80
2022-11-08T02:42:14.186Z,49.40
2022-11-08T02:43:16.208Z,77.70
2022-11-08T02:44:17.806Z,95.90
2022-11-08T02:45:19.488Z,99.90
2022-11-08T02:46:21.075Z,99.90
2022-11-08T02:47:24.070Z,99.90
2022-11-08T02:48:26.469Z,99.90
2022-11-08T02:49:28.403Z,99.90
2022-11-08T02:50:30.016Z,99.90
2022-11-08T02:51:31.666Z,99.90
2022-11-08T02:52:33.529Z,99.90
2022-11-08T02:53:35.215Z,99.90
2022-11-08T02:54:36.945Z,99.90
2022-11-08T02:55:38.784Z,99.90
2022-11-08T02:56:41.225Z,99.90
2022-11-08T02:57:42.833Z,99.90
2022-11-08T02:58:44.421Z,99.90
2022-11-08T02:59:46.014Z,99.90
2022-11-08T03:00:47.630Z,99.90
2022-11-08T03:01:49.417Z,99.90
2022-11-08T03:02:54.832Z,99.90
2022-11-08T03:03:56.531Z,99.90
2022-11-08T03:04:58.114Z,99.90
2022-11-08T03:05:59.751Z,99.90
2022-11-08T03:07:01.379Z,99.90
2022-11-08T03:08:03.214Z,99.90
2022-11-08T03:09:05.039Z,99.90
2022-11-08T03:10:06.887Z,99.90
2022-11-08T03:11:08.562Z,99.90
2022-11-08T03:12:10.180Z,99.90
2022-11-08T03:13:11.792Z,99.90
2022-11-08T03:14:13.387Z,99.90
2022-11-08T03:15:15.164Z,99.90
2022-11-08T03:16:16.963Z,99.90
2022-11-08T03:17:18.591Z,99.90
2022-11-08T03:18:20.485Z,99.90
2022-11-08T03:19:22.209Z,99.90
2022-11-08T03:20:28.255Z,99.90
2022-11-08T03:21:35.663Z,99.90
2022-11-08T03:22:37.266Z,99.90
2022-11-08T03:23:39.021Z,99.90
2022-11-08T03:24:40.834Z,99.90
2022-11-08T03:25:42.446Z,99.90
2022-11-08T03:26:44.325Z,99.90
2022-11-08T03:27:45.919Z,99.90
2022-11-08T03:28:47.565Z,99.90
2022-11-08T03:29:49.977Z,99.90
2022-11-08T03:30:53.037Z,99.90
2022-11-08T03:31:54.858Z,99.90
2022-11-08T03:32:56.507Z,99.90
2022-11-08T03:33:58.103Z,99.90
2022-11-08T03:35:00.849Z,99.90
2022-11-08T03:36:02.541Z,99.90
2022-11-08T03:37:09.287Z,99.90
2022-11-08T03:38:10.860Z,99.90
2022-11-08T03:39:12.545Z,99.90
2022-11-08T03:40:14.356Z,99.90
2022-11-08T03:41:15.965Z,99.90
2022-11-08T03:42:17.613Z,99.90
2022-11-08T03:43:19.325Z,99.90
2022-11-08T03:44:20.940Z,99.90
2022-11-08T03:45:22.774Z,99.90
2022-11-08T03:46:24.443Z,99.90
2022-11-08T03:47:26.093Z,99.90
2022-11-08T03:48:28.146Z,99.90
2022-11-08T03:49:29.778Z,99.90
2022-11-08T03:50:31.431Z,99.90
2022-11-08T03:51:33.032Z,99.90
2022-11-08T03:52:44.849Z,99.90
2022-11-08T03:53:46.439Z,99.90
2022-11-08T03:54:48.007Z,99.90
2022-11-08T03:55:49.599Z,99.90
2022-11-08T03:56:51.203Z,99.90
2022-11-08T03:57:53.966Z,99.90
2022-11-08T03:58:55.551Z,99.90
2022-11-08T03:59:57.133Z,99.90
2022-11-08T04:01:02.702Z,99.90
2022-11-08T04:02:04.410Z,99.90
2022-11-08T04:03:06.268Z,99.90
2022-11-08T04:04:08.281Z,99.90
2022-11-08T04:05:11.400Z,99.90
2022-11-08T04:06:13.008Z,99.90
2022-11-08T04:07:14.748Z,99.90
2022-11-08T04:08:16.724Z,99.90
2022-11-08T04:09:21.543Z,99.90
2022-11-08T04:10:23.422Z,99.90
2022-11-08T04:11:43.700Z,99.90
2022-11-08T04:13:04.329Z,99.90
2022-11-08T04:14:24.938Z,99.90
2022-11-08T04:15:28.278Z,99.90
2022-11-08T04:16:33.422Z,99.90
2022-11-08T04:17:53.511Z,99.90
2022-11-08T04:19:13.812Z,99.90
2022-11-08T04:20:34.331Z,99.90
2022-11-08T04:21:35.939Z,99.90
2022-11-08T04:22:37.530Z,99.90
2022-11-08T04:23:39.200Z,99.90
2022-11-08T04:24:40.902Z,99.90
2022-11-08T04:25:43.518Z,99.90
2022-11-08T04:26:45.201Z,99.90
2022-11-08T04:27:46.802Z,99.90
2022-11-08T04:28:48.533Z,99.90
2022-11-08T04:29:50.165Z,99.90
2022-11-08T04:31:00.288Z,99.90
2022-11-08T04:32:01.932Z,99.90
2022-11-08T04:33:05.009Z,99.90
2022-11-08T04:34:07.021Z,99.90
2022-11-08T04:35:08.671Z,99.90
2022-11-08T04:36:13.702Z,99.90
2022-11-08T04:37:15.381Z,99.90
2022-11-08T04:38:17.691Z,99.90
2022-11-08T04:39:19.584Z,99.90
2022-11-08T04:40:21.164Z,99.90
2022-11-08T04:41:24.551Z,99.90
2022-11-08T04:42:26.230Z,99.90
2022-11-08T04:43:28.185Z,99.90
2022-11-08T04:44:29.825Z,99.90
2022-11-08T04:45:31.450Z,99.90
2022-11-08T04:46:33.067Z,99.90
2022-11-08T04:47:39.413Z,99.90
2022-11-08T04:48:43.767Z,99.90
2022-11-08T04:49:45.376Z,99.90
2022-11-08T04:50:47.004Z,99.90
2022-11-08T04:51:48.614Z,99.90
2022-11-08T04:52:55.124Z,99.90
2022-11-08T04:54:00.624Z,99.90
2022-11-08T04:55:02.250Z,99.90
2022-11-08T04:56:06.972Z,99.90
2022-11-08T04:57:08.621Z,99.90
2022-11-08T04:58:10.221Z,99.90
2022-11-08T04:59:12.373Z,99.90
2022-11-08T05:00:15.341Z,99.90
2022-11-08T05:01:19.686Z,99.90
2022-11-08T05:02:21.417Z,99.90
2022-11-08T05:03:23.145Z,99.90
2022-11-08T05:04:24.740Z,99.90
2022-11-08T05:05:26.336Z,99.90
2022-11-08T05:06:31.298Z,99.90
2022-11-08T05:07:33.314Z,99.90
2022-11-08T05:08:34.939Z,99.90
2022-11-08T05:09:36.557Z,99.90
2022-11-08T05:10:38.186Z,99.90
2022-11-08T05:11:39.775Z,99.90
2022-11-08T05:12:41.463Z,99.90
2022-11-08T05:13:43.871Z,99.90
2022-11-08T05:14:45.462Z,99.90
2022-11-08T05:15:47.066Z,99.90
2022-11-08T05:16:48.909Z,99.90
2022-11-08T05:17:50.581Z,99.90
2022-11-08T05:18:52.807Z,99.90
2022-11-08T05:20:12.992Z,99.90
2022-11-08T05:21:36.035Z,99.90
2022-11-08T05:22:56.425Z,99.90
2022-11-08T05:23:59.165Z,99.90
2022-11-08T05:25:00.764Z,99.90
2022-11-08T05:26:02.500Z,99.90
2022-11-08T05:27:04.155Z,99.90
2022-11-08T05:28:05.893Z,99.90
2022-11-08T05:29:07.494Z,99.90
2022-11-08T05:30:09.434Z,99.90
2022-11-08T05:31:11.793Z,99.90
2022-11-08T05:32:16.080Z,99.90
2022-11-08T05:33:17.847Z,99.90
2022-11-08T05:34:19.427Z,99.90
2022-11-08T05:35:22.863Z,99.90
2022-11-08T05:36:24.445Z,99.90
2022-11-08T05:37:26.070Z,99.90
2022-11-08T05:38:27.688Z,99.90
2022-11-08T05:39:32.054Z,99.90
2022-11-08T05:40:34.255Z,99.90
2022-11-08T05:41:35.942Z,99.90
2022-11-08T05:42:37.561Z,99.90
2022-11-08T05:43:40.145Z,99.90
2022-11-08T05:44:41.760Z,99.90
2022-11-08T05:45:45.536Z,99.90
2022-11-08T05:46:47.173Z,99.90
2022-11-08T05:47:49.434Z,99.90
2022-11-08T05:48:51.229Z,99.90
2022-11-08T05:49:53.289Z,99.90
2022-11-08T05:50:55.317Z,99.90
2022-11-08T05:51:56.955Z,99.90
2022-11-08T05:52:59.038Z,99.90
2022-11-08T05:54:00.739Z,99.90
2022-11-08T05:55:02.353Z,99.90
2022-11-08T05:56:04.609Z,99.90
2022-11-08T05:57:06.204Z,99.90
2022-11-08T05:58:08.378Z,99.90
2022-11-08T05:59:10.053Z,99.90
2022-11-08T06:00:13.042Z,99.90
2022-11-08T06:01:17.474Z,99.90
2022-11-08T06:02:19.167Z,99.90
2022-11-08T06:03:23.683Z,99.90
2022-11-08T06:04:25.743Z,99.90
2022-11-08T06:05:27.380Z,99.90
2022-11-08T06:06:29.055Z,99.90
2022-11-08T06:07:30.692Z,99.90
2022-11-08T06:08:32.384Z,99.90
2022-11-08T06:09:34.043Z,99.90
2022-11-08T06:10:35.711Z,99.90
2022-11-08T06:11:37.538Z,99.90
2022-11-08T06:12:39.224Z,99.90
2022-11-08T06:13:41.199Z,99.90
2022-11-08T06:14:42.857Z,99.90
2022-11-08T06:15:44.536Z,99.90
2022-11-08T06:16:46.151Z,99.90
2022-11-08T06:17:47.754Z,99.90
2022-11-08T06:18:49.642Z,99.90
2022-11-08T06:19:51.346Z,99.90
2022-11-08T06:20:52.936Z,99.90
2022-11-08T06:21:54.535Z,99.90
2022-11-08T06:22:56.299Z,99.90
2022-11-08T06:23:57.962Z,99.90
2022-11-08T06:24:59.757Z,99.90
2022-11-08T06:26:01.436Z,99.90
2022-11-08T06:27:03.330Z,99.90
2022-11-08T06:28:05.435Z,99.90
2022-11-08T06:29:07.009Z,99.90
2022-11-08T06:30:09.466Z,99.90
2022-11-08T06:31:11.389Z,99.90
2022-11-08T06:32:12.994Z,99.90
2022-11-08T06:33:15.435Z,99.90
2022-11-08T06:34:17.286Z,99.90
2022-11-08T06:35:19.079Z,99.90
2022-11-08T06:36:21.449Z,99.90
2022-11-08T06:37:23.066Z,99.90
2022-11-08T06:38:24.768Z,99.90
2022-11-08T06:39:26.516Z,99.90
2022-11-08T06:40:28.425Z,99.90
2022-11-08T06:41:30.365Z,99.90
2022-11-08T06:42:32.050Z,99.90
2022-11-08T06:43:34.070Z,99.90
2022-11-08T06:44:35.835Z,99.90
2022-11-08T06:45:38.492Z,99.90
2022-11-08T06:46:40.079Z,99.90
2022-11-08T06:47:41.668Z,99.90
2022-11-08T06:48:43.274Z,99.90
2022-11-08T06:49:46.355Z,99.90
2022-11-08T06:50:48.435Z,99.90
2022-11-08T06:51:51.166Z,99.90
2022-11-08T06:52:57.121Z,99.90
2022-11-08T06:53:59.207Z,99.90
2022-11-08T06:55:00.927Z,99.90
2022-11-08T06:56:03.304Z,99.90
2022-11-08T06:57:04.986Z,99.90
2022-11-08T06:58:06.789Z,99.90
2022-11-08T06:59:09.373Z,99.90
2022-11-08T07:00:11.695Z,99.90
2022-11-08T07:01:13.699Z,99.90
2022-11-08T07:02:15.466Z,99.90
2022-11-08T07:03:18.356Z,99.90
2022-11-08T07:04:20.289Z,99.90
2022-11-08T07:05:21.942Z,99.90
2022-11-08T07:06:23.618Z,99.90
2022-11-08T07:07:25.207Z,99.90
2022-11-08T07:08:26.900Z,99.90
2022-11-08T07:09:28.711Z,99.90
2022-11-08T07:10:32.295Z,99.90
2022-11-08T07:11:33.952Z,99.90
2022-11-08T07:12:35.576Z,99.90
2022-11-08T07:13:37.239Z,99.90
2022-11-08T07:14:38.942Z,99.90
2022-11-08T07:15:41.352Z,99.90
2022-11-08T07:16:43.104Z,99.90
2022-11-08T07:17:44.815Z,99.90
2022-11-08T07:18:46.546Z,99.90
2022-11-08T07:19:48.380Z,99.90
2022-11-08T07:20:50.109Z,99.90
2022-11-08T07:21:51.743Z,99.90
2022-11-08T07:22:56.730Z,99.90
2022-11-08T07:23:58.370Z,99.90
2022-11-08T07:24:59.966Z,99.90
2022-11-08T07:26:03.611Z,99.90
2022-11-08T07:27:05.284Z,99.90
2022-11-08T07:28:11.898Z,99.90
2022-11-08T07:29:15.941Z,99.90
2022-11-08T07:30:18.039Z,99.90
2022-11-08T07:31:19.906Z,99.90
2022-11-08T07:32:21.840Z,99.90
2022-11-08T07:33:23.465Z,99.90
2022-11-08T07:34:25.132Z,99.90
2022-11-08T07:35:27.927Z,99.90
2022-11-08T07:36:29.584Z,99.90
2022-11-08T07:37:32.241Z,99.90
2022-11-08T07:38:33.887Z,99.90
2022-11-08T07:39:35.481Z,99.90
2022-11-08T07:40:37.118Z,99.90
2022-11-08T07:41:38.706Z,99.90
2022-11-08T07:43:09.556Z,99.90
2022-11-08T07:44:03.125Z,99.90
2022-11-08T07:45:06.158Z,99.90
2022-11-08T07:46:07.843Z,99.90
2022-11-08T07:47:09.504Z,99.90
2022-11-08T07:48:13.862Z,99.90
2022-11-08T07:49:15.610Z,99.90
2022-11-08T07:50:18.092Z,99.90
2022-11-08T07:51:19.879Z,99.90
2022-11-08T07:52:21.566Z,99.90
2022-11-08T07:53:23.420Z,99.90
2022-11-08T07:54:25.040Z,99.90
2022-11-08T07:55:27.478Z,99.90
2022-11-08T07:56:29.164Z,99.90
2022-11-08T07:57:30.801Z,99.90
2022-11-08T07:58:32.500Z,99.90
2022-11-08T07:59:34.123Z,99.90
2022-11-08T08:00:40.273Z,99.90
2022-11-08T08:01:42.109Z,99.90
2022-11-08T08:02:43.959Z,99.90
2022-11-08T08:03:45.617Z,99.90
2022-11-08T08:04:47.228Z,99.90
2022-11-08T08:05:57.939Z,99.90
2022-11-08T08:07:01.290Z,99.90
2022-11-08T08:08:03.787Z,99.90
2022-11-08T08:09:05.474Z,99.90
2022-11-08T08:10:07.512Z,99.90
2022-11-08T08:11:09.687Z,99.90
2022-11-08T08:12:11.366Z,99.90
2022-11-08T08:13:13.058Z,99.90
2022-11-08T08:14:14.865Z,99.90
2022-11-08T08:15:16.594Z,99.90
2022-11-08T08:16:18.195Z,99.90
2022-11-08T08:17:19.846Z,99.90
2022-11-08T08:18:21.691Z,99.90
2022-11-08T08:19:23.315Z,99.90
2022-11-08T08:20:24.938Z,99.90
2022-11-08T08:21:26.580Z,99.90
2022-11-08T08:22:29.140Z,99.90
2022-11-08T08:23:30.931Z,99.90
2022-11-08T08:24:32.633Z,99.90
2022-11-08T08:25:34.484Z,99.90
2022-11-08T08:26:36.145Z,99.90
2022-11-08T08:27:37.793Z,99.90
2022-11-08T08:28:39.510Z,99.90
2022-11-08T08:29:41.346Z,99.90
2022-11-08T08:30:42.924Z,99.90
2022-11-08T08:31:44.599Z,99.90
2022-11-08T08:32:53.389Z,99.90
2022-11-08T08:34:04.316Z,99.90
2022-11-08T08:35:06.076Z,99.90
2022-11-08T08:36:07.910Z,99.90
2022-11-08T08:37:10.150Z,99.90
2022-11-08T08:38:13.380Z,99.90
2022-11-08T08:39:15.034Z,99.90
2022-11-08T08:40:16.907Z,99.90
2022-11-08T08:41:18.553Z,99.90
2022-11-08T08:42:20.172Z,99.90
2022-11-08T08:43:22.270Z,99.90
2022-11-08T08:44:24.105Z,99.90
2022-11-08T08:45:27.031Z,99.90
2022-11-08T08:46:28.614Z,99.90
2022-11-08T08:47:30.194Z,99.90
2022-11-08T08:48:33.209Z,32.20
2022-11-08T08:49:34.782Z,1.00
2022-11-08T08:50:36.423Z,1.00
2022-11-08T08:51:38.040Z,1.00
2022-11-08T08:52:40.530Z,1.00
2022-11-08T08:53:42.159Z,1.00
2022-11-08T08:54:43.756Z,99.90
2022-11-08T08:55:45.520Z,1.00
2022-11-08T08:56:47.107Z,99.90
2022-11-08T08:57:48.874Z,99.90
2022-11-08T09:02:41.504Z,99.90
2022-11-08T09:03:44.332Z,1.00
2022-11-08T09:04:45.912Z,99.90
2022-11-08T09:05:47.616Z,99.90
2022-11-08T09:06:49.271Z,1.00
2022-11-08T09:07:55.689Z,75.50
2022-11-08T09:08:57.273Z,99.90
2022-11-08T09:09:58.908Z,1.00
2022-11-08T09:11:01.650Z,99.90
2022-11-08T09:12:03.684Z,1.00
2022-11-08T09:13:05.602Z,1.00
2022-11-08T09:14:07.251Z,99.90
2022-11-08T09:15:10.099Z,99.90
2022-11-08T09:16:13.609Z,99.90
2022-11-08T09:17:15.200Z,99.90
2022-11-08T09:18:17.533Z,1.00
2022-11-08T09:19:19.225Z,1.00
2022-11-08T09:20:21.120Z,1.00
2022-11-08T09:21:22.789Z,99.90
2022-11-08T09:22:24.477Z,99.90
2022-11-08T09:23:26.189Z,1.00
2022-11-08T09:24:27.779Z,99.90
2022-11-08T09:25:29.604Z,1.00
2022-11-08T09:26:31.275Z,1.00
2022-11-08T09:27:33.469Z,1.00
2022-11-08T09:28:36.385Z,1.00
2022-11-08T09:29:37.970Z,1.00
2022-11-08T09:30:39.581Z,1.00
2022-11-08T09:31:41.287Z,99.90
2022-11-08T09:35:10.974Z,99.90
2022-11-08T09:36:13.709Z,99.90
2022-11-08T09:37:15.325Z,99.90
2022-11-08T09:38:17.499Z,99.90
2022-11-08T09:39:19.376Z,99.90
2022-11-08T09:40:26.983Z,20.70
2022-11-08T09:42:08.472Z,1.00
2022-11-08T09:43:37.731Z,1.00
2022-11-08T09:45:06.873Z,1.00
2022-11-08T09:46:11.499Z,99.90
2022-11-08T09:47:34.646Z,99.90
2022-11-08T09:48:40.388Z,1.00
2022-11-08T09:49:46.900Z,1.00
2022-11-08T09:50:52.057Z,99.90
2022-11-08T09:51:54.039Z,4.80
2022-11-08T09:53:16.772Z,1.00
2022-11-08T09:54:27.902Z,1.00
2022-11-08T09:56:06.185Z,1.00
2022-11-08T09:57:18.011Z,1.00
2022-11-08T09:58:44.537Z,1.00
2022-11-08T09:59:50.418Z,1.00
2022-11-08T10:00:53.184Z,1.00
2022-11-08T10:01:54.949Z,1.00
2022-11-08T10:02:57.241Z,1.00
2022-11-08T10:04:02.852Z,94.00
2022-11-08T10:05:09.378Z,99.90
2022-11-08T10:06:19.728Z,99.90
2022-11-08T10:07:35.219Z,99.90
2022-11-08T10:08:46.631Z,99.90
2022-11-08T10:10:24.580Z,99.90
2022-11-08T10:11:54.767Z,99.90
2022-11-08T10:13:21.113Z,40.50
2022-11-08T10:14:56.908Z,19.20
2022-11-08T10:16:16.087Z,99.90
2022-11-08T10:17:46.236Z,99.90
2022-11-08T10:19:15.862Z,99.90
2022-11-08T10:20:30.838Z,99.90
2022-11-08T10:21:32.421Z,99.90
2022-11-08T10:22:39.874Z,99.90
2022-11-08T10:24:03.309Z,6.00
2022-11-08T10:25:33.222Z,1.00
2022-11-08T10:26:47.988Z,1.00
2022-11-08T10:27:52.587Z,1.00
2022-11-08T10:29:03.044Z,94.60
2022-11-08T10:30:13.511Z,10.80
2022-11-08T10:31:16.131Z,1.00
2022-11-08T10:32:23.179Z,2.00
2022-11-08T10:33:32.459Z,1.00
2022-11-08T10:34:43.892Z,1.00
2022-11-08T10:36:01.776Z,1.00
2022-11-08T10:37:06.586Z,1.00
2022-11-08T10:38:20.093Z,1.00
2022-11-08T10:39:25.616Z,1.00
2022-11-08T10:40:52.400Z,1.00
2022-11-08T10:42:12.465Z,1.00
2022-11-08T10:43:30.144Z,1.00
2022-11-08T10:44:33.279Z,1.00
2022-11-08T10:45:34.874Z,1.00
2022-11-08T10:46:49.720Z,1.00
2022-11-08T10:47:53.071Z,1.00
2022-11-08T10:48:59.979Z,1.00
2022-11-08T10:50:06.014Z,1.00
2022-11-08T10:51:08.029Z,1.00
2022-11-08T10:52:12.597Z,1.00
2022-11-08T10:53:24.151Z,1.00
2022-11-08T10:54:44.213Z,1.00
2022-11-08T10:55:52.296Z,1.00
2022-11-08T10:56:55.802Z,1.00
2022-11-08T10:57:57.448Z,1.00
2022-11-08T10:58:59.073Z,1.00
2022-11-08T11:00:17.811Z,1.00
2022-11-08T11:01:24.261Z,1.00
2022-11-08T11:02:33.717Z,1.00
2022-11-08T11:03:35.387Z,1.00
2022-11-08T11:04:36.969Z,1.00
2022-11-08T11:05:42.493Z,1.00
2022-11-08T11:06:44.105Z,1.00
2022-11-08T11:08:01.953Z,1.00
2022-11-08T11:09:18.635Z,1.00
2022-11-08T11:10:28.131Z,1.00
2022-11-08T11:11:32.691Z,1.00
2022-11-08T11:12:34.268Z,1.00
2022-11-08T11:13:35.846Z,1.00
2022-11-08T11:14:37.611Z,1.00
2022-11-08T11:15:50.932Z,1.00
2022-11-08T11:16:58.146Z,1.00
2022-11-08T11:17:59.973Z,1.00
2022-11-08T11:19:04.118Z,1.00
2022-11-08T11:20:06.190Z,1.00
2022-11-08T11:21:20.805Z,1.00
2022-11-08T11:22:33.575Z,1.00
2022-11-08T11:24:05.922Z,1.00
2022-11-08T11:25:15.606Z,1.00
2022-11-08T11:26:28.677Z,1.00
2022-11-08T11:27:36.156Z,1.00
2022-11-08T11:28:37.807Z,1.00
2022-11-08T11:29:39.556Z,1.00
2022-11-08T11:30:42.149Z,1.00
2022-11-08T11:31:46.856Z,1.00
2022-11-08T11:32:58.567Z,1.00
2022-11-08T11:34:18.082Z,1.00
2022-11-08T11:35:20.676Z,1.00
2022-11-08T11:36:24.912Z,1.00
2022-11-08T11:37:45.851Z,1.00
2022-11-08T11:39:06.829Z,1.00
2022-11-08T11:40:33.874Z,1.00
2022-11-08T11:41:45.328Z,1.00
2022-11-08T11:43:10.765Z,1.00
2022-11-08T11:44:35.536Z,1.00
2022-11-08T11:45:45.414Z,1.00
2022-11-08T11:47:02.601Z,1.00
2022-11-08T11:48:24.482Z,1.00
2022-11-08T11:49:29.127Z,1.00
2022-11-08T11:50:38.624Z,1.00
2022-11-08T11:51:40.345Z,1.00
2022-11-08T11:52:41.980Z,1.00
2022-11-08T11:53:48.618Z,1.00
2022-11-08T11:54:50.796Z,1.00
2022-11-08T11:56:18.697Z,1.00
2022-11-08T11:57:32.106Z,1.00
2022-11-08T11:58:51.965Z,1.00
2022-11-08T12:00:07.007Z,1.00
2022-11-08T12:01:22.120Z,1.00
2022-11-08T12:02:38.781Z,1.00
2022-11-08T12:04:05.657Z,1.00
2022-11-08T12:05:22.324Z,1.00
2022-11-08T12:06:44.770Z,1.00
2022-11-08T12:07:59.879Z,1.00
2022-11-08T12:09:35.221Z,1.00
2022-11-08T12:11:09.668Z,1.00
2022-11-08T12:12:43.142Z,1.00
2022-11-08T12:13:44.694Z,99.90
2022-11-08T12:14:49.410Z,99.90
2022-11-08T12:16:00.996Z,99.90
2022-11-08T12:17:14.072Z,99.90
2022-11-08T12:18:42.832Z,99.90
2022-11-08T12:20:02.762Z,99.90
2022-11-08T12:21:25.144Z,99.90
2022-11-08T12:22:47.730Z,99.90
2022-11-08T12:24:20.302Z,99.90
2022-11-08T12:25:41.078Z,99.90
2022-11-08T12:27:03.965Z,99.90
2022-11-08T12:28:22.955Z,99.90
2022-11-08T12:29:47.576Z,99.90
2022-11-08T12:31:33.651Z,99.90
2022-11-08T12:33:03.827Z,99.90
2022-11-08T12:34:23.804Z,99.90
2022-11-08T12:35:38.811Z,99.90
2022-11-08T12:36:55.300Z,99.90
2022-11-08T12:38:29.138Z,99.90
2022-11-08T12:39:34.338Z,99.90
2022-11-08T12:40:53.611Z,99.90
2022-11-08T12:42:18.962Z,99.90
2022-11-08T12:43:54.550Z,99.90
2022-11-08T12:45:14.955Z,99.90
2022-11-08T12:46:20.321Z,99.90
2022-11-08T12:47:29.194Z,99.90
2022-11-08T12:49:06.919Z,99.90
2022-11-08T12:50:46.163Z,99.90
2022-11-08T12:51:59.934Z,1.00
2022-11-08T12:53:23.488Z,1.00
2022-11-08T12:54:35.652Z,1.00
2022-11-08T12:55:39.462Z,1.00
2022-11-08T12:56:46.003Z,1.00
2022-11-08T12:57:48.298Z,1.00
2022-11-08T12:58:51.764Z,1.00
2022-11-08T13:00:04.464Z,1.00
2022-11-08T13:01:11.011Z,1.00
2022-11-08T13:02:29.690Z,1.00
2022-11-08T13:03:46.353Z,1.00
2022-11-08T13:04:55.724Z,1.00
2022-11-08T13:06:15.011Z,1.00
2022-11-08T13:07:25.773Z,1.00
2022-11-08T13:08:35.571Z,1.00
2022-11-08T13:10:11.090Z,1.00
2022-11-08T13:11:22.245Z,1.00
2022-11-08T13:12:29.843Z,1.00
2022-11-08T13:13:48.807Z,1.00
2022-11-08T13:14:50.890Z,1.00
2022-11-08T13:16:15.795Z,1.00
2022-11-08T13:17:19.560Z,1.00
2022-11-08T13:18:24.270Z,1.00
2022-11-08T13:19:49.803Z,1.00
2022-11-08T13:20:51.780Z,1.00
2022-11-08T13:21:53.562Z,1.00
2022-11-08T13:22:59.493Z,1.00
2022-11-08T13:24:30.832Z,1.00
2022-11-08T13:25:28.701Z,99.90
2022-11-08T13:26:32.939Z,99.90
2022-11-08T13:27:48.454Z,99.90
2022-11-08T13:28:51.753Z,99.90
2022-11-08T13:29:58.014Z,99.90
2022-11-08T13:31:08.964Z,99.90
2022-11-08T13:32:23.993Z,99.90
2022-11-08T13:33:30.469Z,99.90
2022-11-08T13:34:58.644Z,99.90
2022-11-08T13:36:26.123Z,99.90
2022-11-08T13:37:48.480Z,1.00
2022-11-08T13:38:50.028Z,1.00
2022-11-08T13:40:12.982Z,1.00
2022-11-08T13:41:22.895Z,1.00
2022-11-08T13:42:24.413Z,1.00
2022-11-08T13:43:31.297Z,1.00
2022-11-08T13:44:54.350Z,1.00
2022-11-08T13:45:56.742Z,1.00
2022-11-08T13:46:58.339Z,1.00
2022-11-08T13:48:22.344Z,1.00
2022-11-08T13:49:24.337Z,1.00
2022-11-08T13:50:34.353Z,1.00
2022-11-08T13:51:40.230Z,1.00
2022-11-08T13:52:46.592Z,1.00
2022-11-08T13:53:51.459Z,1.00
2022-11-08T13:54:53.709Z,1.00
2022-11-08T13:56:18.673Z,1.00
2022-11-08T13:57:41.000Z,1.00
2022-11-08T13:58:43.788Z,1.00
2022-11-08T13:59:45.315Z,1.00
2022-11-08T14:00:47.138Z,1.00
2022-11-08T14:01:48.774Z,1.00
2022-11-08T14:02:50.371Z,1.00
2022-11-08T14:03:59.085Z,1.00
2022-11-08T14:05:23.224Z,1.00
2022-11-08T14:06:50.140Z,1.00
2022-11-08T14:08:12.207Z,1.00
2022-11-08T14:09:36.548Z,1.00
2022-11-08T14:10:58.178Z,1.00
2022-11-08T14:12:20.767Z,1.00
2022-11-08T14:13:26.521Z,1.00
2022-11-08T14:14:41.602Z,1.00
2022-11-08T14:15:56.893Z,1.00
2022-11-08T14:17:26.224Z,1.00
2022-11-08T14:18:33.368Z,1.00
2022-11-08T14:19:40.381Z,1.00
2022-11-08T14:20:45.256Z,1.00
2022-11-08T14:21:56.831Z,1.00
2022-11-08T14:23:02.580Z,1.00
2022-11-08T14:24:04.392Z,1.00
2022-11-08T14:25:18.605Z,1.00
2022-11-08T14:26:25.411Z,1.00
2022-11-08T14:27:36.561Z,1.00
2022-11-08T14:28:43.572Z,1.00
2022-11-08T14:29:57.721Z,1.00
2022-11-08T14:31:01.300Z,1.00
2022-11-08T14:32:05.520Z,1.00